Time;durP1;ratioP1;P1;durP2;ratioP2;P2;SDS_P1;SDS_P2;PMS_P1;PMS_P2;Temp;Humidity;BMP_temperature;BMP_pressure;BME280_temperature;BME280_humidity;BME280_pressure;Samples;Min_cycle;Max_cycle;Signal;HPM_P1;HPM_P2
2022/09/16 00:00:17;;;;;;;8.60;6.83;;;15.90;99.90;;;;;;6184868;23;20410;-92
2022/09/16 00:02:45;;;;;;;7.53;6.73;;;15.90;99.90;;;;;;6169093;23;20487;-91
2022/09/16 00:05:12;;;;;;;7.80;7.10;;;15.90;99.90;;;;;;6154683;23;20418;-92
2022/09/16 00:07:39;;;;;;;7.00;6.40;;;15.90;99.90;;;;;;6154819;23;20411;-91
2022/09/16 00:10:07;;;;;;;7.33;6.63;;;16.00;99.90;;;;;;6155701;23;20418;-91
2022/09/16 00:12:34;;;;;;;8.87;7.97;;;16.00;99.90;;;;;;6155620;23;20462;-91
2022/09/16 00:15:01;;;;;;;8.93;8.13;;;16.00;99.90;;;;;;6156455;23;20398;-90
2022/09/16 00:17:28;;;;;;;10.03;7.93;;;16.00;99.90;;;;;;6155976;23;20431;-91
2022/09/16 00:19:57;;;;;;;12.43;8.17;;;16.00;99.90;;;;;;6155832;23;20502;-91
2022/09/16 00:22:28;;;;;;;12.70;8.90;;;16.10;99.90;;;;;;6156430;23;20404;-91
2022/09/16 00:24:55;;;;;;;8.37;7.33;;;16.10;99.90;;;;;;6170917;23;20416;-91
2022/09/16 00:27:42;;;;;;;9.53;8.10;;;16.20;99.90;;;;;;6184987;23;20482;-91
2022/09/16 00:30:09;;;;;;;8.40;7.50;;;16.10;99.90;;;;;;6177785;23;20902;-91
2022/09/16 00:32:36;;;;;;;10.00;8.40;;;16.10;99.90;;;;;;6155904;23;20452;-91
2022/09/16 00:35:05;;;;;;;9.40;8.50;;;16.10;99.90;;;;;;6155457;23;20415;-90
2022/09/16 00:37:32;;;;;;;10.27;8.63;;;16.10;99.90;;;;;;6155512;23;20415;-90
2022/09/16 00:39:59;;;;;;;11.53;8.97;;;16.00;99.90;;;;;;6157487;23;20511;-90
2022/09/16 00:42:26;;;;;;;12.30;8.63;;;16.00;99.90;;;;;;6157365;23;20434;-91
2022/09/16 00:44:56;;;;;;;9.37;8.47;;;16.00;99.90;;;;;;6167438;23;20391;-93
2022/09/16 00:47:29;;;;;;;10.60;8.90;;;15.90;99.90;;;;;;6183662;23;20482;-92
2022/09/16 00:50:00;;;;;;;9.00;8.10;;;15.80;99.90;;;;;;6168906;23;20430;-91
2022/09/16 00:52:29;;;;;;;10.20;8.93;;;15.80;99.90;;;;;;6155634;23;20513;-91
2022/09/16 00:54:57;;;;;;;11.60;8.47;;;15.80;99.90;;;;;;6155024;23;20888;-90
2022/09/16 00:57:23;;;;;;;9.77;8.80;;;15.70;99.90;;;;;;6155473;23;20442;-91
2022/09/16 00:59:54;;;;;;;10.67;9.17;;;15.70;99.90;;;;;;6155298;23;20396;-91
2022/09/16 01:02:22;;;;;;;15.80;9.63;;;15.70;99.90;;;;;;6155784;23;20496;-90
2022/09/16 01:04:54;;;;;;;11.63;8.90;;;15.60;99.90;;;;;;6174728;23;20402;-91
2022/09/16 01:07:30;;;;;;;12.30;9.83;;;15.60;99.90;;;;;;6180524;23;20486;-91
2022/09/16 01:09:57;;;;;;;10.23;9.23;;;15.60;99.90;;;;;;6181978;23;20383;-91
2022/09/16 01:12:24;;;;;;;11.07;8.80;;;15.70;99.90;;;;;;6181902;23;20503;-91
2022/09/16 01:14:54;;;;;;;9.10;8.20;;;15.60;99.90;;;;;;6168153;23;20399;-91
2022/09/16 01:17:33;;;;;;;13.30;8.23;;;15.60;99.90;;;;;;6182653;23;20414;-91
2022/09/16 01:20:28;;;;;;;8.67;7.87;;;15.60;99.90;;;;;;6156589;23;20387;-91
2022/09/16 01:23:18;;;;;;;10.73;7.47;;;15.60;99.90;;;;;;6154231;23;20418;-91
2022/09/16 01:25:58;;;;;;;9.87;8.87;;;15.60;99.90;;;;;;6154746;23;20388;-91
2022/09/16 01:28:46;;;;;;;11.33;9.10;;;15.60;99.90;;;;;;6155141;23;20407;-91
2022/09/16 01:31:19;;;;;;;11.73;8.13;;;15.60;99.90;;;;;;6155296;23;20447;-91
2022/09/16 01:33:57;;;;;;;11.77;9.50;;;15.70;99.90;;;;;;6155129;23;20376;-91
2022/09/16 01:36:38;;;;;;;11.63;9.20;;;15.70;99.90;;;;;;6155200;23;20427;-91
2022/09/16 01:39:18;;;;;;;12.33;11.17;;;15.80;99.90;;;;;;6155926;23;20859;-91
2022/09/16 01:42:19;;;;;;;10.83;8.90;;;15.80;99.90;;;;;;6154193;23;20442;-91
2022/09/16 01:44:53;;;;;;;11.70;10.50;;;15.80;99.90;;;;;;6153030;23;20442;-91
2022/09/16 01:47:30;;;;;;;10.00;9.00;;;15.60;99.90;;;;;;6154575;23;20428;-91
2022/09/16 01:50:02;;;;;;;12.03;9.27;;;15.50;99.90;;;;;;6153325;23;20388;-90
2022/09/16 01:52:39;;;;;;;9.83;7.57;;;15.50;99.90;;;;;;6173819;23;20415;-90
2022/09/16 01:55:08;;;;;;;8.60;7.77;;;15.40;99.90;;;;;;6179858;23;20410;-90
2022/09/16 01:57:39;;;;;;;9.47;8.33;;;15.40;99.90;;;;;;6179445;23;20426;-91
2022/09/16 02:00:09;;;;;;;9.83;7.67;;;15.40;99.90;;;;;;6180429;23;20396;-91
2022/09/16 02:02:42;;;;;;;10.17;8.77;;;15.30;99.90;;;;;;6155178;23;20405;-90
2022/09/16 02:05:13;;;;;;;13.07;9.70;;;15.30;99.90;;;;;;6154060;23;20408;-90
2022/09/16 02:07:44;;;;;;;11.00;9.80;;;15.30;99.90;;;;;;6165870;23;20396;-90
2022/09/16 02:10:23;;;;;;;13.60;9.90;;;15.30;99.90;;;;;;6184419;23;20379;-90
2022/09/16 02:12:52;;;;;;;12.73;9.77;;;15.40;99.90;;;;;;6184365;23;20405;-91
2022/09/16 02:15:22;;;;;;;12.87;10.77;;;15.40;99.90;;;;;;6183974;23;20383;-90
2022/09/16 02:17:58;;;;;;;10.83;9.73;;;15.40;99.90;;;;;;6161505;23;20422;-90
2022/09/16 02:20:29;;;;;;;12.60;8.20;;;15.30;99.90;;;;;;6181950;23;20379;-90
2022/09/16 02:22:59;;;;;;;9.63;8.73;;;15.30;99.90;;;;;;6164621;23;20414;-91
2022/09/16 02:25:27;;;;;;;7.03;6.43;;;15.30;99.90;;;;;;6156832;23;20442;-90
2022/09/16 02:27:54;;;;;;;8.17;7.37;;;15.30;99.90;;;;;;6158965;23;20435;-90
2022/09/16 02:30:23;;;;;;;9.83;7.33;;;15.30;99.90;;;;;;6157376;23;20743;-90
2022/09/16 02:32:56;;;;;;;11.17;6.97;;;15.20;99.90;;;;;;6154113;23;20473;-89
2022/09/16 02:35:26;;;;;;;6.17;5.57;;;15.20;99.90;;;;;;6160954;23;20913;-90
2022/09/16 02:37:57;;;;;;;8.87;6.63;;;15.10;99.90;;;;;;6159568;23;20438;-89
2022/09/16 02:40:29;;;;;;;7.33;6.70;;;15.10;99.90;;;;;;6154729;23;20376;-90
2022/09/16 02:42:57;;;;;;;6.47;5.80;;;15.10;99.90;;;;;;6155275;23;20414;-89
2022/09/16 02:45:30;;;;;;;7.93;6.70;;;15.10;99.90;;;;;;6155365;23;20762;-90
2022/09/16 02:48:04;;;;;;;7.17;6.50;;;15.10;99.90;;;;;;6155006;23;20424;-90
2022/09/16 02:50:40;;;;;;;7.10;5.47;;;15.10;99.90;;;;;;6153645;23;20449;-90
2022/09/16 02:53:19;;;;;;;7.27;5.07;;;15.20;99.90;;;;;;6153958;23;20426;-90
2022/09/16 02:55:53;;;;;;;6.60;5.90;;;15.20;99.90;;;;;;6153493;23;20403;-89
2022/09/16 02:58:20;;;;;;;6.87;4.87;;;15.20;99.90;;;;;;6157589;23;20392;-90
2022/09/16 03:00:49;;;;;;;7.77;5.30;;;15.20;99.90;;;;;;6158403;23;20403;-90
2022/09/16 03:03:18;;;;;;;4.93;4.27;;;15.20;99.90;;;;;;6171177;23;20727;-91
2022/09/16 03:06:06;;;;;;;6.13;4.50;;;15.20;99.90;;;;;;6155001;23;20419;-89
2022/09/16 03:08:34;;;;;;;5.63;4.60;;;15.20;99.90;;;;;;6181017;23;20408;-89
2022/09/16 03:11:08;;;;;;;8.00;5.33;;;15.10;99.90;;;;;;6174349;23;20403;-89
2022/09/16 03:13:47;;;;;;;7.37;5.90;;;15.10;99.90;;;;;;6177322;23;20424;-89
2022/09/16 03:16:17;;;;;;;9.63;5.60;;;15.00;99.90;;;;;;6184996;23;20414;-91
2022/09/16 03:19:00;;;;;;;6.20;4.50;;;15.00;99.90;;;;;;6167813;23;20403;-90
2022/09/16 03:21:32;;;;;;;4.33;3.93;;;15.00;99.90;;;;;;6157579;23;20391;-90
2022/09/16 03:24:09;;;;;;;5.43;3.90;;;15.00;99.90;;;;;;6156351;23;20384;-89
2022/09/16 03:26:45;;;;;;;5.63;4.43;;;15.10;99.90;;;;;;6155776;23;20501;-91
2022/09/16 03:29:17;;;;;;;6.67;4.10;;;15.10;99.90;;;;;;6156478;23;20372;-90
2022/09/16 03:31:48;;;;;;;5.50;4.87;;;15.20;99.90;;;;;;6155155;23;20784;-90
2022/09/16 03:34:21;;;;;;;8.20;4.37;;;15.20;99.90;;;;;;6156855;23;20877;-90
2022/09/16 03:36:50;;;;;;;5.73;4.50;;;15.20;99.90;;;;;;6156257;23;20441;-90
2022/09/16 03:39:17;;;;;;;6.00;4.20;;;15.30;99.90;;;;;;6156467;23;20398;-90
2022/09/16 03:41:45;;;;;;;7.93;4.40;;;15.30;99.90;;;;;;6155554;23;20428;-90
2022/09/16 03:44:12;;;;;;;4.77;4.27;;;15.30;99.90;;;;;;6156353;23;20395;-91
2022/09/16 03:46:38;;;;;;;4.80;4.40;;;15.30;99.90;;;;;;6155827;23;20445;-90
2022/09/16 03:49:05;;;;;;;5.20;4.00;;;15.30;99.90;;;;;;6155348;23;20422;-90
2022/09/16 03:51:33;;;;;;;5.73;4.33;;;15.30;99.90;;;;;;6156047;23;20419;-90
2022/09/16 03:54:00;;;;;;;4.10;3.70;;;15.40;99.90;;;;;;6157245;23;20445;-91
2022/09/16 03:56:27;;;;;;;5.53;3.40;;;15.40;99.90;;;;;;6153762;23;22579;-87
2022/09/16 03:58:53;;;;;;;8.33;4.20;;;15.40;99.90;;;;;;6163219;23;20411;-87
2022/09/16 04:01:20;;;;;;;4.70;3.67;;;15.40;99.90;;;;;;6162447;23;20416;-88
2022/09/16 04:03:47;;;;;;;6.40;3.63;;;15.40;99.90;;;;;;6157822;23;20398;-88
2022/09/16 04:06:14;;;;;;;4.47;3.60;;;15.50;99.90;;;;;;6157601;23;20410;-88
2022/09/16 04:08:43;;;;;;;6.93;3.77;;;15.50;99.90;;;;;;6161467;23;20917;-89
2022/09/16 04:11:10;;;;;;;5.50;3.90;;;15.50;99.90;;;;;;6162738;23;20408;-88
2022/09/16 04:13:37;;;;;;;7.43;4.50;;;15.50;99.90;;;;;;6157599;23;20439;-88
2022/09/16 04:16:04;;;;;;;3.97;3.57;;;15.50;99.90;;;;;;6157884;23;20392;-88
2022/09/16 04:18:32;;;;;;;7.80;4.50;;;15.50;99.90;;;;;;6158271;23;20454;-87
2022/09/16 04:21:00;;;;;;;7.00;4.80;;;15.50;99.90;;;;;;6159542;23;20428;-87
2022/09/16 04:23:30;;;;;;;6.77;4.23;;;15.50;99.90;;;;;;6182906;23;20414;-90
2022/09/16 04:26:00;;;;;;;5.43;4.67;;;15.60;99.90;;;;;;6177825;23;20407;-88
2022/09/16 04:29:05;;;;;;;5.50;4.00;;;15.50;99.90;;;;;;6180047;23;20384;-89
2022/09/16 04:31:31;;;;;;;6.07;3.80;;;15.50;99.90;;;;;;6182922;23;20401;-88
2022/09/16 04:34:00;;;;;;;6.73;4.20;;;15.50;99.90;;;;;;6163509;23;20439;-88
2022/09/16 04:36:27;;;;;;;5.33;3.80;;;15.50;99.90;;;;;;6160027;23;20450;-88
2022/09/16 04:38:54;;;;;;;4.80;4.30;;;15.50;99.90;;;;;;6170447;23;20389;-88
2022/09/16 04:41:24;;;;;;;6.37;4.13;;;15.50;99.90;;;;;;6184721;23;20395;-91
2022/09/16 04:43:54;;;;;;;5.97;3.70;;;15.60;99.90;;;;;;6175184;23;20388;-88
2022/09/16 04:46:21;;;;;;;4.73;4.13;;;15.60;99.90;;;;;;6161130;23;20432;-88
2022/09/16 04:48:48;;;;;;;4.10;3.67;;;15.60;99.90;;;;;;6166693;23;20411;-89
2022/09/16 04:51:16;;;;;;;8.83;4.93;;;15.60;99.90;;;;;;6166048;23;20433;-89
2022/09/16 04:53:44;;;;;;;7.50;3.83;;;15.60;99.90;;;;;;6164071;23;20439;-88
2022/09/16 04:56:14;;;;;;;5.47;4.10;;;15.60;99.90;;;;;;6162243;23;20429;-87
2022/09/16 04:58:43;;;;;;;10.33;4.00;;;15.70;99.90;;;;;;6165437;23;20368;-88
2022/09/16 05:01:12;;;;;;;5.50;3.90;;;15.70;99.90;;;;;;6163091;23;20391;-89
2022/09/16 05:03:39;;;;;;;5.53;3.90;;;15.70;99.90;;;;;;6164389;23;20394;-89
2022/09/16 05:06:10;;;;;;;6.97;3.83;;;15.70;99.90;;;;;;6162949;23;20491;-89
2022/09/16 05:08:38;;;;;;;6.77;4.80;;;15.70;99.90;;;;;;6161827;23;20395;-89
2022/09/16 05:11:07;;;;;;;6.33;4.90;;;15.70;99.90;;;;;;6163784;23;20462;-89
2022/09/16 05:13:34;;;;;;;9.20;5.83;;;15.70;99.90;;;;;;6159620;23;20498;-89
2022/09/16 05:16:04;;;;;;;6.33;4.87;;;15.70;99.90;;;;;;6159777;23;20411;-89
2022/09/16 05:18:31;;;;;;;5.67;4.83;;;15.70;99.90;;;;;;6160626;23;20407;-88
2022/09/16 05:20:59;;;;;;;7.13;4.87;;;15.70;99.90;;;;;;6162836;23;20411;-88
2022/09/16 05:23:26;;;;;;;7.00;4.30;;;15.70;99.90;;;;;;6166718;23;20463;-88
2022/09/16 05:25:53;;;;;;;4.73;4.23;;;15.70;99.90;;;;;;6162784;23;20898;-88
2022/09/16 05:28:20;;;;;;;6.60;4.40;;;15.70;99.90;;;;;;6159540;23;20450;-88
2022/09/16 05:30:46;;;;;;;5.90;4.43;;;15.60;99.90;;;;;;6159291;23;20689;-89
2022/09/16 05:33:14;;;;;;;5.43;4.70;;;15.60;99.90;;;;;;6158889;23;20441;-88
2022/09/16 05:35:41;;;;;;;9.93;4.50;;;15.70;99.90;;;;;;6158167;23;20418;-88
2022/09/16 05:38:09;;;;;;;7.87;4.60;;;15.70;99.90;;;;;;6157819;23;20490;-87
2022/09/16 05:40:35;;;;;;;5.93;5.10;;;15.60;99.90;;;;;;6160704;23;20895;-87
2022/09/16 05:43:02;;;;;;;5.40;4.90;;;15.70;99.90;;;;;;6162241;23;20404;-88
2022/09/16 05:45:29;;;;;;;5.63;4.30;;;15.60;99.90;;;;;;6162356;23;20457;-88
2022/09/16 05:47:55;;;;;;;9.30;6.43;;;15.50;99.90;;;;;;6168425;23;20511;-88
2022/09/16 05:50:23;;;;;;;6.70;5.17;;;15.50;99.90;;;;;;6165668;23;20403;-88
2022/09/16 05:52:50;;;;;;;10.80;5.40;;;15.40;99.90;;;;;;6160449;23;20444;-88
2022/09/16 05:55:17;;;;;;;7.67;5.37;;;15.50;99.90;;;;;;6178811;23;20433;-88
2022/09/16 05:57:43;;;;;;;7.27;6.57;;;15.40;99.90;;;;;;6164429;23;20998;-88
2022/09/16 06:00:11;;;;;;;6.10;5.37;;;15.40;99.90;;;;;;6169399;23;20418;-88
2022/09/16 06:02:38;;;;;;;9.13;6.00;;;15.50;99.90;;;;;;6167898;23;20462;-88
2022/09/16 06:05:05;;;;;;;6.77;5.00;;;15.50;99.90;;;;;;6163774;23;20403;-88
2022/09/16 06:07:33;;;;;;;5.90;5.30;;;15.50;99.90;;;;;;6175487;23;20422;-88
2022/09/16 06:10:00;;;;;;;6.80;5.77;;;15.40;99.90;;;;;;6181974;23;20438;-89
2022/09/16 06:12:26;;;;;;;5.80;5.20;;;15.40;99.90;;;;;;6183578;23;20462;-88
2022/09/16 06:14:53;;;;;;;10.63;6.67;;;15.30;99.90;;;;;;6183750;23;20431;-92
2022/09/16 06:17:20;;;;;;;7.37;6.07;;;15.30;99.90;;;;;;6181950;23;20494;-89
2022/09/16 06:19:47;;;;;;;6.07;4.70;;;15.20;99.90;;;;;;6164403;23;20403;-89
2022/09/16 06:22:13;;;;;;;8.17;5.60;;;15.20;99.90;;;;;;6160068;23;20410;-88
2022/09/16 06:24:41;;;;;;;8.33;5.20;;;15.10;99.90;;;;;;6157523;23;20910;-89
2022/09/16 06:27:16;;;;;;;6.17;5.20;;;15.10;99.90;;;;;;6159523;23;20435;-88
2022/09/16 06:29:44;;;;;;;5.37;4.50;;;15.10;99.90;;;;;;6181027;23;20391;-89
2022/09/16 06:32:11;;;;;;;7.63;5.13;;;15.10;99.90;;;;;;6174675;23;20899;-88
2022/09/16 06:34:37;;;;;;;6.77;5.70;;;15.10;99.90;;;;;;6160660;23;20773;-88
2022/09/16 06:37:05;;;;;;;5.60;5.10;;;15.10;99.90;;;;;;6167009;23;20431;-89
2022/09/16 06:39:32;;;;;;;5.93;4.97;;;15.30;99.90;;;;;;6170156;23;20463;-88
2022/09/16 06:42:00;;;;;;;5.53;4.87;;;15.30;99.90;;;;;;6176554;23;20414;-90
2022/09/16 06:44:26;;;;;;;8.27;4.10;;;15.30;99.90;;;;;;6162937;23;20396;-89
2022/09/16 06:46:53;;;;;;;7.30;5.70;;;15.20;99.90;;;;;;6163501;23;20436;-88
2022/09/16 06:49:20;;;;;;;8.17;4.80;;;15.10;99.90;;;;;;6170278;23;20403;-88
2022/09/16 06:51:47;;;;;;;6.27;4.93;;;15.00;99.90;;;;;;6166544;23;20482;-88
2022/09/16 06:54:13;;;;;;;5.70;5.13;;;14.90;99.90;;;;;;6178106;23;20453;-87
2022/09/16 06:56:40;;;;;;;6.63;5.43;;;14.90;99.90;;;;;;6176149;23;20494;-87
2022/09/16 06:59:10;;;;;;;5.90;4.67;;;14.90;99.90;;;;;;6175461;23;20412;-85
2022/09/16 07:01:37;;;;;;;5.73;4.90;;;14.90;99.90;;;;;;6172671;23;20410;-89
2022/09/16 07:04:07;;;;;;;6.80;4.50;;;14.90;99.90;;;;;;6173205;23;20411;-87
2022/09/16 07:06:34;;;;;;;8.30;4.20;;;14.80;99.90;;;;;;6171366;23;20434;-87
2022/09/16 07:09:01;;;;;;;5.57;4.20;;;14.80;99.90;;;;;;6163556;23;20398;-85
2022/09/16 07:11:27;;;;;;;6.10;4.10;;;14.70;99.90;;;;;;6158693;23;20403;-87
2022/09/16 07:13:54;;;;;;;8.00;3.90;;;14.60;99.90;;;;;;6159551;23;20486;-86
2022/09/16 07:16:25;;;;;;;5.83;3.90;;;14.50;99.90;;;;;;6158550;23;20469;-86
2022/09/16 07:18:55;;;;;;;5.93;3.40;;;14.50;99.90;;;;;;6163266;23;20425;-86
2022/09/16 07:21:26;;;;;;;5.67;3.30;;;14.40;99.90;;;;;;6180613;23;20392;-86
2022/09/16 07:23:56;;;;;;;7.67;3.97;;;14.30;99.90;;;;;;6177312;23;20395;-86
2022/09/16 07:26:25;;;;;;;6.43;4.40;;;14.30;99.90;;;;;;6162953;23;20431;-87
2022/09/16 07:28:54;;;;;;;8.13;4.27;;;14.30;99.90;;;;;;6162947;23;20407;-88
2022/09/16 07:31:24;;;;;;;5.60;4.37;;;14.40;99.90;;;;;;6161028;23;20412;-88
2022/09/16 07:33:53;;;;;;;6.00;4.50;;;14.40;99.90;;;;;;6158279;23;20950;-86
2022/09/16 07:36:22;;;;;;;5.90;5.30;;;14.40;99.90;;;;;;6164075;23;20918;-87
2022/09/16 07:38:50;;;;;;;7.33;4.07;;;14.40;99.90;;;;;;6173351;23;20415;-85
2022/09/16 07:41:18;;;;;;;8.07;5.60;;;14.30;99.90;;;;;;6167908;23;20462;-85
2022/09/16 07:43:46;;;;;;;7.70;5.47;;;14.30;99.90;;;;;;6159798;23;20414;-85
2022/09/16 07:46:15;;;;;;;5.03;4.47;;;14.40;99.90;;;;;;6157679;23;20416;-85
2022/09/16 07:48:44;;;;;;;5.80;4.73;;;14.50;99.90;;;;;;6157496;23;20400;-85
2022/09/16 07:51:13;;;;;;;5.57;5.07;;;14.60;99.90;;;;;;6161809;23;20407;-83
2022/09/16 07:53:41;;;;;;;4.87;4.37;;;14.60;99.90;;;;;;6163145;23;20486;-83
2022/09/16 07:56:10;;;;;;;5.13;4.63;;;14.60;99.90;;;;;;6161759;23;20388;-84
2022/09/16 07:58:37;;;;;;;8.70;4.30;;;14.50;99.90;;;;;;6161700;23;20430;-83
2022/09/16 08:01:04;;;;;;;7.40;4.90;;;14.50;99.90;;;;;;6159414;23;20395;-82
2022/09/16 08:03:31;;;;;;;6.70;6.00;;;14.50;99.90;;;;;;6158476;23;20419;-86
2022/09/16 08:06:02;;;;;;;8.50;5.20;;;14.50;99.90;;;;;;6157503;23;20434;-84
2022/09/16 08:08:29;;;;;;;7.87;5.20;;;14.50;99.90;;;;;;6156875;23;20462;-83
2022/09/16 08:10:59;;;;;;;9.13;5.47;;;14.40;99.90;;;;;;6162199;23;20390;-86
2022/09/16 08:13:30;;;;;;;6.13;5.07;;;14.40;99.90;;;;;;6176481;23;20414;-84
2022/09/16 08:16:01;;;;;;;5.40;4.90;;;14.50;99.90;;;;;;6176180;23;20383;-82
2022/09/16 08:18:28;;;;;;;7.60;4.70;;;14.80;99.90;;;;;;6179164;23;20391;-84
2022/09/16 08:20:54;;;;;;;5.73;5.13;;;14.90;99.90;;;;;;6174404;23;20399;-84
2022/09/16 08:23:23;;;;;;;7.20;5.70;;;14.90;99.90;;;;;;6166410;23;20387;-83
2022/09/16 08:25:56;;;;;;;10.60;5.13;;;14.90;99.90;;;;;;6160231;23;20404;-84
2022/09/16 08:28:23;;;;;;;10.33;7.30;;;14.90;99.90;;;;;;6160201;23;20423;-86
2022/09/16 08:30:50;;;;;;;14.90;6.97;;;14.90;99.90;;;;;;6160135;23;20487;-85
2022/09/16 08:33:20;;;;;;;9.43;5.60;;;14.90;99.90;;;;;;6160008;23;20739;-83
2022/09/16 08:35:47;;;;;;;6.20;5.60;;;14.90;99.90;;;;;;6160687;23;20400;-82
2022/09/16 08:38:14;;;;;;;8.73;5.77;;;14.80;99.90;;;;;;6162086;23;20479;-82
2022/09/16 08:40:45;;;;;;;9.93;5.83;;;14.80;99.90;;;;;;6158239;23;20411;-82
2022/09/16 08:43:19;;;;;;;7.03;6.13;;;14.80;99.90;;;;;;6160137;23;20892;-83
2022/09/16 08:45:55;;;;;;;8.13;7.10;;;14.90;99.90;;;;;;6159244;23;20390;-83
2022/09/16 08:48:31;;;;;;;8.73;7.20;;;14.90;99.90;;;;;;6158432;23;20434;-82
2022/09/16 08:51:00;;;;;;;9.60;6.80;;;15.00;99.90;;;;;;6160149;23;20391;-83
2022/09/16 08:53:35;;;;;;;8.17;7.40;;;15.00;99.90;;;;;;6157545;23;20411;-83
2022/09/16 08:56:07;;;;;;;8.77;7.00;;;15.00;99.90;;;;;;6155917;23;20391;-85
2022/09/16 08:58:39;;;;;;;9.83;7.40;;;15.00;99.90;;;;;;6156887;23;20391;-85
2022/09/16 09:01:27;;;;;;;11.70;7.30;;;15.00;99.90;;;;;;6157802;23;20410;-82
2022/09/16 09:03:54;;;;;;;10.37;7.30;;;15.10;99.90;;;;;;6161991;23;20384;-84
2022/09/16 09:06:44;;;;;;;10.20;8.10;;;15.30;99.90;;;;;;6160709;23;20407;-84
2022/09/16 09:09:37;;;;;;;8.37;7.53;;;15.50;99.90;;;;;;6172936;23;20384;-81
2022/09/16 09:12:10;;;;;;;9.03;7.97;;;15.70;99.90;;;;;;6181536;23;20382;-81
2022/09/16 09:14:59;;;;;;;7.70;7.00;;;16.10;99.90;;;;;;6166124;23;20432;-83
2022/09/16 09:17:41;;;;;;;8.47;7.00;;;16.10;99.90;;;;;;6162231;23;20483;-82
2022/09/16 09:20:20;;;;;;;8.03;6.50;;;16.20;99.90;;;;;;6160415;23;20398;-83
2022/09/16 09:23:02;;;;;;;6.60;5.90;;;16.20;99.90;;;;;;6160395;23;20423;-84
2022/09/16 09:25:39;;;;;;;7.30;6.60;;;16.20;99.90;;;;;;6171899;23;20392;-81
2022/09/16 09:28:22;;;;;;;6.97;6.37;;;16.30;99.90;;;;;;6167049;23;20442;-81
2022/09/16 09:30:59;;;;;;;7.10;6.40;;;16.10;99.90;;;;;;6171564;23;20388;-81
2022/09/16 09:33:36;;;;;;;7.20;6.50;;;16.10;99.90;;;;;;6177488;23;20384;-81
2022/09/16 09:36:31;;;;;;;7.70;6.97;;;16.20;99.90;;;;;;6173088;23;20431;-84
2022/09/16 09:39:15;;;;;;;7.40;6.33;;;16.30;99.90;;;;;;6173139;23;20407;-85
2022/09/16 09:41:47;;;;;;;6.47;5.83;;;16.30;99.90;;;;;;6168063;23;20396;-84
2022/09/16 09:44:47;;;;;;;7.77;6.43;;;16.20;99.90;;;;;;6159207;23;20442;-85
2022/09/16 09:47:20;;;;;;;9.33;5.80;;;16.30;99.90;;;;;;6153134;23;20430;-84
2022/09/16 09:49:52;;;;;;;6.67;5.90;;;16.40;99.90;;;;;;6155900;23;20388;-83
2022/09/16 09:52:24;;;;;;;5.23;4.73;;;16.60;99.90;;;;;;6161503;23;20403;-84
2022/09/16 09:54:52;;;;;;;5.97;4.70;;;16.70;99.90;;;;;;6156384;23;20433;-83
2022/09/16 09:57:27;;;;;;;5.83;3.90;;;16.90;99.90;;;;;;6156909;23;20440;-84
2022/09/16 10:00:00;;;;;;;5.37;4.53;;;17.00;99.90;;;;;;6156071;23;20762;-83
2022/09/16 10:02:27;;;;;;;5.83;4.40;;;17.00;99.90;;;;;;6156934;23;20391;-84
2022/09/16 10:04:54;;;;;;;6.40;4.30;;;17.10;99.90;;;;;;6164695;23;20395;-83
2022/09/16 10:07:24;;;;;;;9.10;4.63;;;16.80;99.90;;;;;;6161380;23;20431;-84
2022/09/16 10:09:54;;;;;;;6.30;3.73;;;16.80;99.90;;;;;;6158749;23;20399;-82
2022/09/16 10:12:32;;;;;;;6.30;4.30;;;16.80;99.90;;;;;;6164620;23;20392;-83
2022/09/16 10:15:01;;;;;;;6.83;5.03;;;16.60;99.90;;;;;;6158347;23;20773;-82
2022/09/16 10:17:30;;;;;;;8.80;5.73;;;16.70;99.90;;;;;;6154909;23;20464;-82
2022/09/16 10:20:00;;;;;;;6.63;5.23;;;16.70;99.90;;;;;;6158950;23;20383;-87
2022/09/16 10:22:29;;;;;;;4.43;4.03;;;16.70;99.90;;;;;;6158466;23;20414;-82
2022/09/16 10:24:57;;;;;;;7.07;5.50;;;16.70;99.90;;;;;;6156408;23;20403;-82
2022/09/16 10:27:27;;;;;;;7.00;5.10;;;16.70;99.90;;;;;;6154816;23;20428;-81
2022/09/16 10:30:07;;;;;;;5.33;4.50;;;16.60;99.90;;;;;;6154366;23;20408;-81
2022/09/16 10:32:45;;;;;;;10.17;6.67;;;16.50;99.90;;;;;;6170002;23;20403;-82
2022/09/16 10:35:18;;;;;;;11.80;5.87;;;16.50;99.90;;;;;;6157582;23;20470;-84
2022/09/16 10:37:52;;;;;;;5.63;5.13;;;16.40;99.90;;;;;;6161472;23;20427;-85
2022/09/16 10:40:22;;;;;;;7.23;5.17;;;16.30;99.90;;;;;;6157057;23;20897;-84
2022/09/16 10:42:50;;;;;;;6.37;5.03;;;16.50;99.90;;;;;;6155924;23;20414;-86
2022/09/16 10:45:26;;;;;;;8.40;5.40;;;16.60;99.90;;;;;;6156301;23;20863;-84
2022/09/16 10:47:55;;;;;;;5.03;4.53;;;16.80;99.90;;;;;;6157079;23;20945;-82
2022/09/16 10:50:22;;;;;;;8.17;5.97;;;16.80;99.90;;;;;;6157624;23;20430;-81
2022/09/16 10:52:50;;;;;;;6.30;5.17;;;16.80;99.90;;;;;;6157586;23;20418;-82
2022/09/16 10:55:23;;;;;;;5.93;5.00;;;16.80;99.90;;;;;;6156804;23;20443;-84
2022/09/16 10:57:51;;;;;;;7.87;4.73;;;16.90;99.90;;;;;;6157657;23;20447;-84
2022/09/16 11:00:21;;;;;;;4.67;4.10;;;16.90;99.90;;;;;;6156762;23;20417;-83
2022/09/16 11:03:25;;;;;;;8.50;4.70;;;17.00;99.90;;;;;;6156814;23;20723;-82
2022/09/16 11:06:03;;;;;;;4.73;4.20;;;16.80;99.90;;;;;;6158006;23;20771;-83
2022/09/16 11:08:44;;;;;;;5.70;4.07;;;16.70;99.90;;;;;;6157016;23;20702;-83
2022/09/16 11:11:15;;;;;;;6.47;3.60;;;16.70;99.90;;;;;;6157823;23;20454;-82
2022/09/16 11:13:51;;;;;;;6.87;4.40;;;16.70;99.90;;;;;;6161847;23;20887;-82
2022/09/16 11:16:44;;;;;;;6.07;4.80;;;16.60;99.90;;;;;;6173570;23;20435;-82
2022/09/16 11:19:23;;;;;;;7.83;5.07;;;16.70;99.90;;;;;;6160479;23;20411;-83
2022/09/16 11:22:04;;;;;;;5.80;3.70;;;16.80;99.90;;;;;;6168899;23;20400;-84
2022/09/16 11:24:58;;;;;;;6.40;4.40;;;16.90;99.90;;;;;;6172666;23;20368;-81
2022/09/16 11:27:39;;;;;;;3.90;3.60;;;16.90;99.90;;;;;;6172013;23;20422;-87
2022/09/16 11:30:16;;;;;;;5.40;4.13;;;16.80;99.90;;;;;;6160810;23;21275;-81
2022/09/16 11:33:11;;;;;;;7.07;3.87;;;16.60;99.90;;;;;;6167110;23;20396;-80
2022/09/16 11:36:12;;;;;;;6.30;3.90;;;16.50;99.90;;;;;;6173089;23;20956;-79
2022/09/16 11:38:54;;;;;;;5.00;4.50;;;16.60;99.90;;;;;;6170755;23;20421;-81
2022/09/16 11:41:29;;;;;;;7.63;5.60;;;16.60;99.90;;;;;;6174758;23;20437;-81
2022/09/16 11:44:19;;;;;;;10.10;5.00;;;16.70;99.90;;;;;;6169788;23;20498;-81
2022/09/16 11:46:56;;;;;;;6.43;4.07;;;16.80;99.90;;;;;;6165395;23;20450;-81
2022/09/16 11:49:44;;;;;;;6.03;3.80;;;17.10;99.90;;;;;;6168549;23;20446;-80
2022/09/16 11:52:29;;;;;;;7.83;4.83;;;17.40;99.90;;;;;;6163423;23;20478;-81
2022/09/16 11:55:10;;;;;;;4.87;3.70;;;17.70;99.90;;;;;;6162653;23;20457;-81
2022/09/16 11:57:51;;;;;;;6.40;4.00;;;18.00;99.90;;;;;;6165743;23;20399;-81
2022/09/16 12:00:23;;;;;;;6.53;4.10;;;18.10;99.90;;;;;;6175134;23;20419;-85
2022/09/16 12:03:05;;;;;;;7.67;3.43;;;18.40;99.90;;;;;;6185190;23;20399;-86
2022/09/16 12:05:42;;;;;;;4.37;2.50;;;18.70;99.90;;;;;;6183766;23;20398;-86
2022/09/16 12:08:25;;;;;;;3.47;2.97;;;19.30;99.90;;;;;;6171225;23;20419;-87
2022/09/16 12:11:05;;;;;;;3.33;2.83;;;20.90;99.40;;;;;;6161170;23;20875;-86
2022/09/16 12:13:36;;;;;;;4.63;2.77;;;21.60;97.10;;;;;;6161464;23;20400;-84
2022/09/16 12:16:08;;;;;;;3.73;2.53;;;22.00;95.80;;;;;;6156590;23;20930;-85
2022/09/16 12:18:53;;;;;;;4.37;2.90;;;22.00;92.50;;;;;;6158912;23;20878;-86
2022/09/16 12:21:26;;;;;;;4.30;2.50;;;21.90;91.60;;;;;;6157100;23;20915;-85
2022/09/16 12:23:57;;;;;;;2.77;2.53;;;21.60;90.10;;;;;;6157661;23;20486;-86
2022/09/16 12:26:37;;;;;;;3.70;2.07;;;21.40;86.10;;;;;;6164572;23;20459;-85
2022/09/16 12:29:17;;;;;;;2.33;2.10;;;21.20;88.40;;;;;;6171065;23;20422;-86
2022/09/16 12:31:52;;;;;;;3.77;3.10;;;21.90;88.70;;;;;;6157628;23;20427;-86
2022/09/16 12:34:23;;;;;;;6.57;2.80;;;22.70;87.00;;;;;;6156492;23;20421;-85
2022/09/16 12:36:58;;;;;;;6.63;3.60;;;22.80;84.30;;;;;;6154693;23;20434;-86
2022/09/16 12:39:25;;;;;;;6.73;3.40;;;22.40;84.30;;;;;;6179394;23;20375;-82
2022/09/16 12:42:24;;;;;;;4.53;3.37;;;21.90;84.10;;;;;;6165463;23;20439;-86
2022/09/16 12:45:20;;;;;;;4.67;2.60;;;21.40;83.80;;;;;;6133354;23;20506;-86
2022/09/16 12:48:09;;;;;;;8.03;2.83;;;20.80;84.90;;;;;;6161662;23;20866;-86
2022/09/16 12:50:47;;;;;;;4.77;3.40;;;20.50;88.10;;;;;;6156170;23;20784;-87
2022/09/16 12:53:48;;;;;;;5.50;2.80;;;20.20;89.00;;;;;;6156512;23;20407;-86
2022/09/16 12:56:25;;;;;;;3.00;1.93;;;20.10;88.00;;;;;;6162147;23;20435;-86
2022/09/16 12:59:06;;;;;;;4.30;2.00;;;19.90;89.80;;;;;;6165554;23;20403;-86
2022/09/16 13:01:40;;;;;;;6.97;2.07;;;19.70;89.40;;;;;;6162447;23;20945;-86
2022/09/16 13:04:14;;;;;;;3.23;2.33;;;19.80;89.80;;;;;;6163602;23;20382;-85
2022/09/16 13:06:52;;;;;;;5.07;2.40;;;19.30;88.30;;;;;;6181261;23;20395;-85
2022/09/16 13:09:35;;;;;;;8.17;4.17;;;19.10;90.00;;;;;;6170086;23;20384;-86
2022/09/16 13:12:04;;;;;;;5.10;2.67;;;19.10;90.70;;;;;;6181048;23;20423;-83